Time;durP1;ratioP1;P1;durP2;ratioP2;P2;SDS_P1;SDS_P2;PMS_P1;PMS_P2;Temp;Humidity;BMP_temperature;BMP_pressure;BME280_temperature;BME280_humidity;BME280_pressure;Samples;Min_cycle;Max_cycle;Signal;HPM_P1;HPM_P2
2022/03/16 00:02:21;;;;;;;42.22;23.73;;;5.60;99.90;;;;;;5002885;28;20530;-88
2022/03/16 00:04:52;;;;;;;42.75;24.15;;;5.60;99.90;;;;;;5012857;28;20115;-87
2022/03/16 00:07:18;;;;;;;42.38;24.60;;;5.60;99.90;;;;;;5009269;28;20038;-87
2022/03/16 00:09:45;;;;;;;41.55;23.80;;;6.30;99.90;;;;;;4987743;28;20048;-88
2022/03/16 00:12:11;;;;;;;40.70;23.95;;;5.50;99.90;;;;;;5014488;28;20047;-87
2022/03/16 00:14:37;;;;;;;42.42;25.92;;;6.10;99.90;;;;;;5008952;28;20101;-87
2022/03/16 00:17:04;;;;;;;41.58;24.00;;;5.50;99.90;;;;;;5025232;28;20529;-88
2022/03/16 00:19:31;;;;;;;46.63;25.90;;;5.50;99.90;;;;;;5004066;28;20115;-87
2022/03/16 00:21:58;;;;;;;40.75;24.42;;;5.50;99.90;;;;;;5006710;28;20125;-87
2022/03/16 00:24:23;;;;;;;47.70;26.33;;;5.40;99.90;;;;;;5011257;28;20041;-86
2022/03/16 00:26:49;;;;;;;41.10;24.50;;;6.20;99.90;;;;;;5009768;28;20044;-87
2022/03/16 00:29:15;;;;;;;45.55;24.05;;;5.40;99.90;;;;;;4972142;28;20040;-86
2022/03/16 00:31:40;;;;;;;42.38;25.55;;;5.80;99.90;;;;;;5008200;28;20056;-87
2022/03/16 00:34:06;;;;;;;46.13;25.92;;;6.40;99.90;;;;;;5009368;28;20037;-87
2022/03/16 00:36:32;;;;;;;49.78;26.45;;;5.80;99.90;;;;;;5014047;28;20036;-87
2022/03/16 00:38:58;;;;;;;44.58;25.83;;;6.40;99.90;;;;;;4976704;28;20072;-88
2022/03/16 00:41:23;;;;;;;44.67;25.23;;;5.30;99.90;;;;;;4989904;28;20048;-88
2022/03/16 00:43:49;;;;;;;41.92;24.50;;;5.30;99.90;;;;;;4990466;28;20087;-88
2022/03/16 00:46:15;;;;;;;38.03;23.58;;;5.30;99.90;;;;;;4973486;28;20033;-87
2022/03/16 00:48:40;;;;;;;42.20;24.20;;;5.70;99.90;;;;;;5009942;28;20155;-88
2022/03/16 00:51:08;;;;;;;39.75;23.73;;;5.20;99.90;;;;;;5023971;28;20059;-88
2022/03/16 00:53:34;;;;;;;43.30;24.88;;;5.20;99.90;;;;;;5015258;28;20042;-88
2022/03/16 00:56:03;;;;;;;42.47;23.98;;;5.20;99.90;;;;;;5026893;28;20201;-88
2022/03/16 00:58:29;;;;;;;43.17;23.83;;;5.10;99.90;;;;;;5006626;28;20506;-87
2022/03/16 01:00:55;;;;;;;38.83;23.45;;;6.50;99.90;;;;;;4996375;28;20071;-87
2022/03/16 01:03:21;;;;;;;42.72;23.35;;;5.80;99.90;;;;;;4985725;28;20073;-87
2022/03/16 01:05:46;;;;;;;44.47;24.17;;;5.00;99.90;;;;;;5027027;28;20083;-88
2022/03/16 01:08:13;;;;;;;42.25;23.80;;;6.30;99.90;;;;;;4990341;28;20440;-87
2022/03/16 01:10:39;;;;;;;40.80;22.92;;;4.90;99.90;;;;;;5015900;28;20087;-88
2022/03/16 01:13:05;;;;;;;37.75;23.33;;;4.80;99.90;;;;;;5009859;28;20045;-88
2022/03/16 01:15:31;;;;;;;40.90;23.10;;;6.00;99.90;;;;;;4990440;28;20044;-88
2022/03/16 01:17:57;;;;;;;41.78;23.48;;;6.00;99.90;;;;;;4998436;28;20041;-88
2022/03/16 01:20:24;;;;;;;38.17;21.70;;;4.70;99.90;;;;;;5028638;28;20049;-87
2022/03/16 01:22:50;;;;;;;38.65;22.55;;;4.80;99.90;;;;;;5004610;28;20047;-88
2022/03/16 01:25:16;;;;;;;43.08;24.65;;;5.80;99.90;;;;;;5008144;28;20053;-88
2022/03/16 01:27:42;;;;;;;38.38;22.65;;;4.60;99.90;;;;;;5001798;28;20045;-88
2022/03/16 01:30:08;;;;;;;42.92;22.95;;;5.50;99.90;;;;;;5010003;28;20104;-87
2022/03/16 01:32:34;;;;;;;42.47;23.35;;;4.60;99.90;;;;;;5013337;28;20046;-87
2022/03/16 01:35:00;;;;;;;39.38;21.83;;;5.40;99.90;;;;;;5026198;28;20047;-88
2022/03/16 01:37:26;;;;;;;39.00;22.25;;;4.50;99.90;;;;;;4990509;28;20045;-86
2022/03/16 01:39:51;;;;;;;36.67;21.35;;;4.50;99.90;;;;;;4995335;28;20493;-87
2022/03/16 01:42:17;;;;;;;37.65;23.15;;;;;;;;;;5013688;28;20533;-88
2022/03/16 01:45:02;;;;;;;40.75;21.23;;;4.50;99.90;;;;;;5032147;28;20033;-88
2022/03/16 01:47:28;;;;;;;42.83;24.17;;;4.50;99.90;;;;;;4998887;28;20062;-88
2022/03/16 01:49:55;;;;;;;45.13;23.45;;;5.90;99.90;;;;;;5028094;28;20029;-86
2022/03/16 01:52:27;;;;;;;39.25;21.23;;;4.50;99.90;;;;;;5014066;28;20310;-88
2022/03/16 01:54:54;;;;;;;35.72;20.58;;;5.60;99.90;;;;;;5031868;28;20076;-88
2022/03/16 01:57:20;;;;;;;41.03;22.35;;;5.50;99.90;;;;;;5012388;28;20043;-87
2022/03/16 01:59:46;;;;;;;37.53;21.20;;;6.20;99.90;;;;;;5010178;28;20098;-88
2022/03/16 02:02:12;;;;;;;40.58;22.38;;;4.80;99.90;;;;;;5013534;28;20048;-87
2022/03/16 02:04:39;;;;;;;41.17;23.10;;;6.40;99.90;;;;;;5005132;28;20148;-88
2022/03/16 02:07:05;;;;;;;40.65;21.90;;;6.00;99.90;;;;;;5034119;28;20041;-87
2022/03/16 02:09:32;;;;;;;37.55;21.88;;;5.50;99.90;;;;;;5005756;28;20591;-87
2022/03/16 02:11:57;;;;;;;39.88;22.25;;;5.40;99.90;;;;;;5002063;28;20040;-88
2022/03/16 02:14:23;;;;;;;41.70;23.15;;;5.40;99.90;;;;;;5004161;28;20033;-87
2022/03/16 02:16:49;;;;;;;42.10;22.48;;;4.50;99.90;;;;;;5016634;28;20149;-87
2022/03/16 02:19:15;;;;;;;40.90;22.00;;;4.50;99.90;;;;;;5002288;28;20033;-87
2022/03/16 02:21:44;;;;;;;37.22;21.25;;;5.70;99.90;;;;;;5028120;28;20053;-86
2022/03/16 02:24:10;;;;;;;34.80;20.45;;;5.50;99.90;;;;;;5034683;28;20049;-87
2022/03/16 02:26:36;;;;;;;38.97;22.15;;;;;;;;;;5018920;28;20467;-86
2022/03/16 02:29:03;;;;;;;35.65;21.27;;;4.50;99.90;;;;;;5006269;28;20045;-87
2022/03/16 02:31:29;;;;;;;40.75;22.02;;;4.40;99.90;;;;;;5020691;28;20512;-87
2022/03/16 02:33:55;;;;;;;35.00;20.17;;;5.50;99.90;;;;;;4996196;28;20052;-87
2022/03/16 02:36:20;;;;;;;40.58;22.60;;;4.40;99.90;;;;;;4981604;28;20457;-88
2022/03/16 02:38:46;;;;;;;42.05;23.00;;;4.40;99.90;;;;;;5014243;28;20081;-86
2022/03/16 02:41:12;;;;;;;44.03;22.35;;;4.30;99.90;;;;;;4983956;28;20040;-87
2022/03/16 02:43:38;;;;;;;43.60;22.25;;;5.00;99.90;;;;;;5032213;28;20107;-87
2022/03/16 02:46:05;;;;;;;37.55;21.50;;;6.00;99.90;;;;;;5009111;28;20037;-87
2022/03/16 02:48:31;;;;;;;36.47;22.05;;;4.80;99.90;;;;;;5014512;28;20033;-86
2022/03/16 02:50:57;;;;;;;42.00;22.70;;;4.30;99.90;;;;;;4999246;28;20040;-87
2022/03/16 02:53:22;;;;;;;43.25;22.63;;;5.40;99.90;;;;;;5016336;28;20091;-87
2022/03/16 02:55:49;;;;;;;41.25;23.92;;;4.40;99.90;;;;;;5034091;28;20053;-86
2022/03/16 02:58:16;;;;;;;43.25;24.17;;;4.70;99.90;;;;;;5004358;28;20042;-88
2022/03/16 03:00:42;;;;;;;40.58;22.92;;;4.90;99.90;;;;;;4994751;28;20391;-87
2022/03/16 03:03:08;;;;;;;41.70;23.52;;;5.00;99.90;;;;;;5012200;28;20406;-87
2022/03/16 03:05:34;;;;;;;44.50;23.27;;;4.20;99.90;;;;;;4995063;28;20037;-87
2022/03/16 03:08:00;;;;;;;41.30;23.48;;;4.20;99.90;;;;;;5031268;28;20029;-88
2022/03/16 03:10:26;;;;;;;43.60;23.75;;;4.10;99.90;;;;;;5033338;28;20036;-87
2022/03/16 03:12:52;;;;;;;37.85;21.88;;;4.10;99.90;;;;;;5012760;28;20401;-87
2022/03/16 03:15:18;;;;;;;41.13;22.13;;;4.10;99.90;;;;;;5001584;28;20051;-87
2022/03/16 03:17:45;;;;;;;40.00;22.00;;;6.00;99.90;;;;;;5026864;28;20767;-87
2022/03/16 03:20:11;;;;;;;41.70;21.90;;;4.10;99.90;;;;;;5002311;28;20057;-87
2022/03/16 03:22:38;;;;;;;44.75;23.23;;;4.10;99.90;;;;;;5000149;28;20044;-87
2022/03/16 03:25:05;;;;;;;37.47;21.67;;;4.00;99.90;;;;;;5001035;28;20056;-88
2022/03/16 03:27:32;;;;;;;37.60;21.02;;;3.90;99.90;;;;;;4995107;28;20067;-88
2022/03/16 03:29:58;;;;;;;42.22;22.67;;;3.90;99.90;;;;;;5033213;28;20425;-87
2022/03/16 03:32:24;;;;;;;41.42;22.75;;;4.10;99.90;;;;;;5024017;28;20053;-88
2022/03/16 03:34:51;;;;;;;42.70;23.23;;;3.90;99.90;;;;;;5019363;28;20075;-87
2022/03/16 03:37:18;;;;;;;44.50;23.50;;;4.10;99.90;;;;;;5000592;28;20124;-88
2022/03/16 03:39:44;;;;;;;40.40;22.42;;;4.80;99.90;;;;;;5019965;28;20071;-88
2022/03/16 03:42:10;;;;;;;42.63;22.83;;;4.60;99.90;;;;;;5028887;28;20048;-88
2022/03/16 03:44:38;;;;;;;42.70;22.80;;;3.80;99.90;;;;;;4981664;28;20072;-88
2022/03/16 03:47:09;;;;;;;40.67;21.42;;;4.70;99.90;;;;;;5015596;28;20037;-88
2022/03/16 03:49:37;;;;;;;37.75;21.50;;;4.80;99.90;;;;;;5011715;28;20040;-88
2022/03/16 03:52:04;;;;;;;42.30;22.67;;;3.70;99.90;;;;;;5032310;28;20123;-87
2022/03/16 03:54:30;;;;;;;43.13;22.70;;;3.70;99.90;;;;;;5014983;28;20093;-88
2022/03/16 03:56:56;;;;;;;41.72;22.63;;;3.70;99.90;;;;;;4994250;28;20120;-88
2022/03/16 03:59:23;;;;;;;39.70;21.95;;;5.00;99.90;;;;;;4979217;28;20557;-87
2022/03/16 04:01:50;;;;;;;40.88;22.65;;;5.10;99.90;;;;;;5010073;28;20037;-87
2022/03/16 04:04:16;;;;;;;36.78;21.17;;;3.60;99.90;;;;;;4998703;28;20037;-87
2022/03/16 04:06:42;;;;;;;44.28;23.23;;;3.60;99.90;;;;;;4995963;28;20059;-88
2022/03/16 04:09:08;;;;;;;43.83;21.95;;;;;;;;;;5029934;28;20032;-88
2022/03/16 04:11:34;;;;;;;38.55;21.88;;;3.60;99.90;;;;;;5003973;28;20041;-88
2022/03/16 04:14:00;;;;;;;40.47;22.45;;;4.00;99.90;;;;;;4982787;28;20102;-89
2022/03/16 04:16:26;;;;;;;41.10;22.20;;;4.60;99.90;;;;;;4995818;28;20514;-88
2022/03/16 04:18:52;;;;;;;43.15;23.27;;;4.80;99.90;;;;;;5021619;28;20064;-89
2022/03/16 04:21:17;;;;;;;43.63;23.23;;;3.50;99.90;;;;;;4992614;28;20084;-87
2022/03/16 04:23:43;;;;;;;38.45;21.55;;;3.50;99.90;;;;;;4992472;28;20048;-87
2022/03/16 04:26:09;;;;;;;49.15;25.77;;;3.40;99.90;;;;;;4953992;28;20065;-87
2022/03/16 04:28:35;;;;;;;42.80;22.50;;;3.40;99.90;;;;;;4994506;28;20467;-87
2022/03/16 04:31:01;;;;;;;43.55;22.30;;;;;;;;;;4980659;28;20041;-88
2022/03/16 04:33:28;;;;;;;42.60;22.60;;;3.50;99.90;;;;;;4990501;28;20034;-87
2022/03/16 04:35:55;;;;;;;44.92;24.35;;;4.40;99.90;;;;;;5013119;28;20053;-88
2022/03/16 04:38:23;;;;;;;42.70;23.02;;;3.50;99.90;;;;;;4976598;28;20099;-88
2022/03/16 04:40:49;;;;;;;39.95;20.98;;;4.90;99.90;;;;;;4972509;28;20037;-88
2022/03/16 04:43:15;;;;;;;40.55;22.20;;;3.40;99.90;;;;;;4995526;28;20042;-88
2022/03/16 04:45:41;;;;;;;40.72;22.15;;;4.40;99.90;;;;;;5008880;28;20129;-88
2022/03/16 04:48:08;;;;;;;43.58;22.02;;;4.10;99.90;;;;;;4990298;28;20103;-88
2022/03/16 04:50:35;;;;;;;44.45;22.75;;;3.40;99.90;;;;;;4979867;28;20462;-88
2022/03/16 04:53:01;;;;;;;38.95;21.58;;;3.40;99.90;;;;;;4996808;28;20106;-88
2022/03/16 04:55:27;;;;;;;41.38;22.45;;;3.40;99.90;;;;;;5004665;28;20048;-88
2022/03/16 04:57:53;;;;;;;42.30;23.27;;;3.30;99.90;;;;;;4998440;28;20042;-86
2022/03/16 05:00:19;;;;;;;40.80;23.60;;;3.40;99.90;;;;;;4951336;28;20038;-88
2022/03/16 05:02:44;;;;;;;44.92;23.65;;;3.40;99.90;;;;;;4961905;28;20080;-88
2022/03/16 05:05:10;;;;;;;41.50;22.90;;;4.40;99.90;;;;;;4994775;28;20045;-86
2022/03/16 05:07:37;;;;;;;42.30;22.23;;;3.40;99.90;;;;;;4963939;28;20124;-87
2022/03/16 05:10:05;;;;;;;43.40;23.02;;;3.40;99.90;;;;;;4978268;28;20037;-87
2022/03/16 05:12:42;;;;;;;39.53;22.50;;;3.50;99.90;;;;;;5012359;28;20107;-88
2022/03/16 05:15:13;;;;;;;41.53;22.42;;;3.50;99.90;;;;;;4991947;28;20132;-89
2022/03/16 05:17:39;;;;;;;45.70;22.58;;;3.50;99.90;;;;;;4996548;28;20116;-88
2022/03/16 05:20:06;;;;;;;40.95;22.50;;;3.50;99.90;;;;;;4975471;28;20112;-87
2022/03/16 05:22:45;;;;;;;37.35;21.27;;;3.50;99.90;;;;;;4991806;28;20049;-89
2022/03/16 05:25:17;;;;;;;40.50;21.77;;;3.50;99.90;;;;;;5016635;28;20067;-89
2022/03/16 05:27:43;;;;;;;38.63;21.58;;;3.50;99.90;;;;;;5015773;28;20408;-89
2022/03/16 05:30:10;;;;;;;43.85;22.52;;;3.50;99.90;;;;;;5031423;28;20115;-88
2022/03/16 05:32:36;;;;;;;38.20;21.45;;;3.50;99.90;;;;;;5019928;28;20073;-89
2022/03/16 05:35:02;;;;;;;36.88;21.00;;;3.70;99.90;;;;;;4984412;28;20044;-89
2022/03/16 05:37:28;;;;;;;40.33;21.15;;;3.60;99.90;;;;;;4999562;28;20076;-88
2022/03/16 05:39:54;;;;;;;39.58;22.02;;;3.60;99.90;;;;;;5000210;28;20072;-88
2022/03/16 05:42:20;;;;;;;43.25;24.27;;;3.50;99.90;;;;;;5019170;28;20067;-87
2022/03/16 05:44:46;;;;;;;42.72;22.55;;;;;;;;;;5004309;28;20558;-87
2022/03/16 05:47:12;;;;;;;44.33;23.58;;;3.70;99.90;;;;;;5028235;28;20045;-86
2022/03/16 05:49:38;;;;;;;41.47;23.27;;;3.60;99.90;;;;;;5035584;28;20033;-87
2022/03/16 05:52:05;;;;;;;45.13;23.10;;;4.80;99.90;;;;;;5030523;28;20064;-87
2022/03/16 05:54:31;;;;;;;41.95;22.80;;;3.70;99.90;;;;;;4992990;28;20068;-86
2022/03/16 05:56:57;;;;;;;37.13;20.67;;;3.70;99.90;;;;;;5012893;28;20483;-87
2022/03/16 05:59:22;;;;;;;41.90;22.15;;;3.70;99.90;;;;;;5012339;28;20083;-87
2022/03/16 06:01:48;;;;;;;43.10;22.85;;;;;;;;;;5015963;28;20371;-87
2022/03/16 06:04:14;;;;;;;43.42;22.70;;;3.70;99.90;;;;;;5006108;28;20052;-87
2022/03/16 06:06:40;;;;;;;45.03;23.55;;;3.90;99.90;;;;;;5012737;28;20044;-87
2022/03/16 06:09:05;;;;;;;41.20;23.42;;;3.70;99.90;;;;;;4985545;28;20506;-87
2022/03/16 06:11:31;;;;;;;44.30;22.60;;;3.80;99.90;;;;;;5033161;28;20069;-87
2022/03/16 06:13:57;;;;;;;39.38;21.55;;;3.70;99.90;;;;;;4986191;28;20033;-88
2022/03/16 06:16:22;;;;;;;46.83;23.30;;;3.70;99.90;;;;;;5001321;28;20140;-88
2022/03/16 06:18:48;;;;;;;40.80;23.60;;;5.10;99.90;;;;;;4970686;28;20071;-88
2022/03/16 06:21:14;;;;;;;45.88;23.77;;;4.60;99.90;;;;;;4993792;28;20048;-87
2022/03/16 06:23:40;;;;;;;49.58;25.63;;;3.80;99.90;;;;;;4995054;28;20423;-88
2022/03/16 06:26:06;;;;;;;43.17;23.38;;;5.10;99.90;;;;;;4979612;28;20041;-87
2022/03/16 06:28:32;;;;;;;45.63;22.88;;;3.90;99.90;;;;;;5013990;28;20514;-88
2022/03/16 06:30:58;;;;;;;46.85;24.20;;;3.90;99.90;;;;;;5014099;28;20482;-87
2022/03/16 06:33:24;;;;;;;46.17;25.63;;;3.90;99.90;;;;;;5027816;28;20041;-87
2022/03/16 06:35:50;;;;;;;46.05;24.55;;;4.00;99.90;;;;;;4997172;28;20044;-87
2022/03/16 06:38:15;;;;;;;49.47;25.38;;;5.50;99.90;;;;;;5033313;28;20044;-86
2022/03/16 06:40:41;;;;;;;56.08;26.25;;;4.10;99.90;;;;;;5004155;28;20041;-88
2022/03/16 06:43:07;;;;;;;48.38;26.83;;;4.00;99.90;;;;;;5001055;28;20110;-87
2022/03/16 06:45:33;;;;;;;50.35;26.40;;;;;;;;;;5003823;28;20037;-87
2022/03/16 06:48:02;;;;;;;45.03;24.90;;;4.20;99.90;;;;;;5026367;28;20590;-87
2022/03/16 06:50:28;;;;;;;46.08;25.27;;;4.90;99.90;;;;;;5000289;28;20051;-87
2022/03/16 06:52:55;;;;;;;54.58;28.27;;;4.30;99.90;;;;;;5016951;28;20167;-87
2022/03/16 06:55:21;;;;;;;43.78;25.10;;;4.40;99.90;;;;;;5012137;28;20042;-87
2022/03/16 06:57:47;;;;;;;52.10;27.45;;;4.40;99.90;;;;;;4979316;28;20033;-85
2022/03/16 07:00:14;;;;;;;54.45;27.60;;;6.00;99.90;;;;;;4981960;28;20051;-85
2022/03/16 07:02:54;;;;;;;47.65;26.50;;;4.50;99.90;;;;;;5014654;28;20052;-85
2022/03/16 07:05:21;;;;;;;57.55;29.13;;;4.60;99.90;;;;;;5004060;28;20481;-87
2022/03/16 07:07:46;;;;;;;50.30;27.02;;;4.70;99.90;;;;;;5012075;28;20076;-85
2022/03/16 07:10:12;;;;;;;46.95;25.60;;;6.20;99.90;;;;;;5013174;28;20425;-85
2022/03/16 07:12:38;;;;;;;52.38;28.08;;;4.80;99.90;;;;;;5031551;28;20044;-85
2022/03/16 07:15:07;;;;;;;45.83;25.52;;;4.90;99.90;;;;;;4978109;28;20120;-85
2022/03/16 07:17:33;;;;;;;54.08;28.25;;;4.90;99.90;;;;;;5015677;28;20047;-86
2022/03/16 07:19:58;;;;;;;45.95;26.83;;;6.70;99.90;;;;;;5012294;28;20037;-85
2022/03/16 07:22:25;;;;;;;47.92;26.50;;;;;;;;;;4979736;28;20226;-87
2022/03/16 07:24:50;;;;;;;55.63;29.13;;;5.10;99.90;;;;;;5028645;28;20056;-85
2022/03/16 07:27:16;;;;;;;50.40;27.77;;;6.90;99.90;;;;;;4997504;28;20029;-85
2022/03/16 07:29:42;;;;;;;47.22;26.17;;;5.20;99.90;;;;;;5009831;28;20033;-87
2022/03/16 07:32:08;;;;;;;49.17;28.00;;;6.20;99.90;;;;;;4997556;28;20116;-87
2022/03/16 07:34:34;;;;;;;48.92;27.58;;;5.30;99.90;;;;;;5009732;28;20076;-87
2022/03/16 07:37:00;;;;;;;54.13;28.50;;;5.40;99.90;;;;;;5006342;28;20073;-85
2022/03/16 07:39:25;;;;;;;50.50;28.08;;;5.50;99.90;;;;;;4983905;28;20033;-85
2022/03/16 07:41:51;;;;;;;48.90;28.23;;;5.50;99.90;;;;;;5022070;28;20048;-85
2022/03/16 07:44:17;;;;;;;52.72;28.40;;;6.50;99.90;;;;;;5000871;28;20116;-86
2022/03/16 07:46:43;;;;;;;49.85;27.52;;;5.70;99.90;;;;;;5010010;28;20510;-87
2022/03/16 07:49:08;;;;;;;45.28;27.17;;;6.70;99.90;;;;;;4981436;28;20083;-88
2022/03/16 07:51:34;;;;;;;41.80;24.10;;;7.40;99.90;;;;;;4999498;28;20029;-88
2022/03/16 07:54:00;;;;;;;45.17;26.58;;;5.90;99.90;;;;;;4983290;28;20044;-86
2022/03/16 07:56:26;;;;;;;47.92;27.75;;;6.00;99.90;;;;;;5032483;28;20124;-85
2022/03/16 07:58:52;;;;;;;44.53;25.63;;;6.30;99.90;;;;;;5010853;28;20048;-86
2022/03/16 08:01:18;;;;;;;45.50;27.38;;;7.60;99.90;;;;;;4982926;28;20045;-87
2022/03/16 08:03:43;;;;;;;44.50;26.27;;;6.20;99.90;;;;;;4994729;28;20060;-87
2022/03/16 08:06:09;;;;;;;45.92;26.92;;;6.40;99.90;;;;;;5011437;28;20490;-92
2022/03/16 08:08:39;;;;;;;49.70;28.65;;;6.70;99.90;;;;;;4974920;28;20044;-89
2022/03/16 08:11:06;;;;;;;40.55;24.73;;;6.50;99.90;;;;;;5015555;28;20037;-87
2022/03/16 08:13:32;;;;;;;40.75;24.98;;;8.50;99.90;;;;;;5010188;28;20041;-86
2022/03/16 08:15:58;;;;;;;43.60;25.73;;;6.70;99.90;;;;;;5014016;28;20060;-87
2022/03/16 08:18:24;;;;;;;41.78;26.27;;;6.70;99.90;;;;;;5008474;28;20041;-88
2022/03/16 08:20:49;;;;;;;40.17;25.77;;;7.10;99.90;;;;;;4982731;28;20512;-87
2022/03/16 08:23:15;;;;;;;42.47;24.92;;;7.00;99.90;;;;;;5016922;28;20084;-93
2022/03/16 08:25:41;;;;;;;39.50;25.00;;;7.30;99.90;;;;;;5021951;28;20170;-90
2022/03/16 08:28:07;;;;;;;37.78;24.55;;;8.90;99.90;;;;;;4978074;28;20076;-86
2022/03/16 08:30:34;;;;;;;39.15;23.45;;;7.30;99.90;;;;;;5016350;28;20635;-87
2022/03/16 08:33:01;;;;;;;38.45;25.27;;;7.40;99.90;;;;;;4998333;28;20545;-88
2022/03/16 08:35:27;;;;;;;38.20;24.40;;;8.10;99.90;;;;;;5012359;28;20078;-90
2022/03/16 08:37:54;;;;;;;37.20;23.85;;;7.60;99.90;;;;;;4999850;28;20076;-85
2022/03/16 08:40:23;;;;;;;40.25;23.98;;;7.60;99.90;;;;;;4993158;28;20047;-90
2022/03/16 08:42:52;;;;;;;38.28;23.70;;;7.70;99.90;;;;;;4990307;28;20495;-90
2022/03/16 08:45:20;;;;;;;37.72;23.02;;;7.80;99.90;;;;;;5018311;28;20528;-88
2022/03/16 08:47:46;;;;;;;38.15;24.40;;;;;;;;;;5015023;28;20552;-89
2022/03/16 08:50:12;;;;;;;37.05;22.45;;;7.90;99.90;;;;;;5011422;28;20098;-89
2022/03/16 08:52:38;;;;;;;35.72;22.33;;;8.00;99.90;;;;;;5002326;28;20041;-89
2022/03/16 08:55:05;;;;;;;37.50;22.92;;;8.00;99.90;;;;;;5014878;28;20043;-89
2022/03/16 08:57:32;;;;;;;33.30;22.92;;;8.20;99.90;;;;;;5001689;28;20059;-89
2022/03/16 08:59:58;;;;;;;31.13;21.23;;;8.30;99.90;;;;;;5034353;28;20550;-88
2022/03/16 09:02:24;;;;;;;32.63;20.90;;;8.50;99.90;;;;;;5029600;28;20085;-89
2022/03/16 09:04:52;;;;;;;31.48;20.45;;;8.60;99.90;;;;;;5010570;28;20088;-87
2022/03/16 09:07:21;;;;;;;32.65;20.15;;;8.10;99.90;;;;;;5001609;28;20033;-89
2022/03/16 09:09:49;;;;;;;30.55;20.52;;;8.70;99.90;;;;;;5010960;28;20127;-89
2022/03/16 09:12:15;;;;;;;30.30;19.90;;;;;;;;;;5035554;28;20037;-90
2022/03/16 09:14:41;;;;;;;32.75;20.50;;;9.00;99.90;;;;;;5012148;28;20106;-90
2022/03/16 09:17:10;;;;;;;29.00;20.08;;;9.30;99.90;;;;;;5009405;28;20072;-90
2022/03/16 09:19:36;;;;;;;30.45;20.00;;;9.20;99.90;;;;;;5005095;28;20033;-90
2022/03/16 09:22:04;;;;;;;28.65;19.65;;;9.40;99.90;;;;;;5021835;28;20053;-89
2022/03/16 09:24:30;;;;;;;31.00;20.35;;;9.50;99.90;;;;;;5033223;28;20047;-90
2022/03/16 09:26:59;;;;;;;31.17;20.08;;;9.70;99.90;;;;;;5015668;28;20394;-90
2022/03/16 09:29:25;;;;;;;32.53;20.60;;;9.90;99.90;;;;;;4990098;28;20045;-88
2022/03/16 09:31:51;;;;;;;29.50;19.63;;;10.00;99.90;;;;;;5007908;28;20043;-88
2022/03/16 09:34:19;;;;;;;32.33;20.45;;;10.20;99.90;;;;;;4999188;28;20055;-90
2022/03/16 09:36:48;;;;;;;32.40;20.48;;;;;;;;;;5021302;28;20124;-90
2022/03/16 09:39:14;;;;;;;29.63;19.80;;;10.40;99.90;;;;;;5017726;28;20037;-89
2022/03/16 09:41:43;;;;;;;28.63;19.02;;;10.50;99.90;;;;;;5026487;28;20112;-90
2022/03/16 09:44:10;;;;;;;29.63;19.70;;;10.60;99.90;;;;;;5031116;28;20391;-85
2022/03/16 09:46:37;;;;;;;30.48;19.10;;;10.70;99.90;;;;;;5017199;28;20036;-86
2022/03/16 09:49:04;;;;;;;26.10;17.30;;;10.90;99.90;;;;;;5002914;28;20041;-86
2022/03/16 09:51:35;;;;;;;26.15;17.02;;;;;;;;;;5018275;28;20094;-85
2022/03/16 09:54:07;;;;;;;24.75;16.42;;;11.00;99.90;;;;;;5033322;28;20107;-85
2022/03/16 09:56:36;;;;;;;27.42;16.50;;;11.10;99.90;;;;;;5029826;28;20048;-85
2022/03/16 09:59:02;;;;;;;23.20;15.23;;;11.30;99.90;;;;;;5014727;28;20124;-86
2022/03/16 10:01:28;;;;;;;24.75;15.77;;;11.40;99.90;;;;;;5001094;28;20093;-88
2022/03/16 10:03:59;;;;;;;23.40;14.82;;;11.50;99.90;;;;;;5017764;28;20067;-88
2022/03/16 10:06:30;;;;;;;22.13;13.88;;;11.70;99.90;;;;;;5015813;28;20037;-85
2022/03/16 10:14:24;;;;;;;21.45;13.18;;;12.80;99.90;;;;;;5019141;28;20490;-89
2022/03/16 10:19:52;;;;;;;18.98;12.38;;;11.90;99.90;;;;;;5034071;28;20111;-88
2022/03/16 10:22:30;;;;;;;20.80;13.32;;;12.00;99.90;;;;;;5017602;28;20084;-87
2022/03/16 10:25:00;;;;;;;20.75;12.25;;;12.10;99.90;;;;;;5032190;28;20048;-88
2022/03/16 10:27:26;;;;;;;20.00;12.18;;;12.20;99.90;;;;;;4997903;28;20033;-87
2022/03/16 10:29:52;;;;;;;19.35;11.80;;;12.20;99.90;;;;;;5033830;28;20445;-87
2022/03/16 10:32:22;;;;;;;19.75;11.70;;;12.30;99.90;;;;;;5014320;28;20044;-85
2022/03/16 10:34:52;;;;;;;19.00;11.70;;;12.30;99.90;;;;;;5014993;28;20033;-86
2022/03/16 10:37:23;;;;;;;20.02;11.95;;;12.30;99.90;;;;;;5013014;28;20528;-87
2022/03/16 10:39:50;;;;;;;21.83;13.55;;;12.40;99.90;;;;;;4999162;28;20033;-89
2022/03/16 10:48:20;;;;;;;19.48;12.02;;;12.60;99.90;;;;;;5033242;28;20052;-86
2022/03/16 10:50:48;;;;;;;17.30;11.65;;;12.70;99.90;;;;;;5010307;28;20040;-88
2022/03/16 10:53:16;;;;;;;19.92;12.27;;;12.60;99.90;;;;;;4999223;28;20057;-88
2022/03/16 10:55:44;;;;;;;20.40;11.95;;;12.60;99.90;;;;;;5017487;28;20098;-85
2022/03/16 10:58:12;;;;;;;20.00;11.55;;;12.60;99.90;;;;;;5013566;28;20044;-86
2022/03/16 11:00:39;;;;;;;18.52;10.43;;;12.70;99.90;;;;;;5016073;28;20041;-87
2022/03/16 11:03:09;;;;;;;19.00;10.88;;;12.70;99.90;;;;;;5033011;28;20037;-86
2022/03/16 11:05:40;;;;;;;17.02;10.32;;;12.80;99.90;;;;;;5015696;28;20048;-87
2022/03/16 11:08:08;;;;;;;16.70;10.32;;;12.80;99.90;;;;;;5016633;28;20037;-87
2022/03/16 11:10:39;;;;;;;16.48;9.95;;;12.90;99.90;;;;;;5006982;28;20034;-87
2022/03/16 11:15:54;;;;;;;17.25;9.57;;;13.10;99.90;;;;;;5017694;28;20123;-86
2022/03/16 11:18:21;;;;;;;18.35;10.18;;;12.90;99.90;;;;;;5014045;28;20033;-87
2022/03/16 11:20:53;;;;;;;17.00;9.75;;;13.20;99.90;;;;;;4999952;28;20041;-85
2022/03/16 11:26:27;;;;;;;;;;;13.30;99.90;;;;;;5028144;28;20040;-87
2022/03/16 11:29:02;;;;;;;19.85;11.13;;;13.30;99.90;;;;;;5028259;28;20001;-87
2022/03/16 11:31:34;;;;;;;18.42;11.27;;;13.40;99.90;;;;;;5030004;28;20087;-87
2022/03/16 11:34:03;;;;;;;16.58;10.60;;;13.40;99.90;;;;;;5015643;28;20045;-87
2022/03/16 11:36:31;;;;;;;19.15;10.93;;;13.40;99.90;;;;;;5011227;28;20044;-87
2022/03/16 11:39:03;;;;;;;18.17;10.27;;;13.40;99.90;;;;;;5016870;28;20041;-87
2022/03/16 11:41:32;;;;;;;17.38;10.02;;;13.40;99.90;;;;;;5011809;28;20037;-86
2022/03/16 11:44:28;;;;;;;17.30;9.77;;;13.40;99.90;;;;;;5016025;28;20065;-86
2022/03/16 11:46:55;;;;;;;17.48;10.27;;;13.50;99.90;;;;;;4997846;28;20128;-87
2022/03/16 11:49:29;;;;;;;18.65;10.48;;;13.60;99.90;;;;;;5012241;28;20118;-87
2022/03/16 11:52:04;;;;;;;17.70;10.23;;;13.70;99.90;;;;;;5030475;28;20047;-86
2022/03/16 11:54:42;;;;;;;17.98;10.35;;;13.90;99.90;;;;;;5015231;28;20076;-87
2022/03/16 11:57:09;;;;;;;17.40;10.02;;;14.00;99.90;;;;;;5010642;28;20084;-87
2022/03/16 11:59:44;;;;;;;17.20;10.13;;;14.10;99.90;;;;;;4995941;28;20045;-87
2022/03/16 12:02:20;;;;;;;19.30;10.80;;;14.10;99.90;;;;;;5007022;28;20040;-86
2022/03/16 12:04:47;;;;;;;16.05;9.95;;;14.20;99.90;;;;;;5027915;28;20041;-88
2022/03/16 12:07:22;;;;;;;16.15;10.25;;;14.20;99.90;;;;;;5015122;28;20054;-86
2022/03/16 12:09:54;;;;;;;16.35;9.75;;;14.30;99.90;;;;;;4987327;28;20033;-85
2022/03/16 12:15:11;;;;;;;16.35;9.48;;;14.20;99.90;;;;;;5030565;28;20052;-87
2022/03/16 12:17:39;;;;;;;17.42;10.05;;;14.20;99.90;;;;;;5007088;28;20375;-87
2022/03/16 12:20:12;;;;;;;15.20;9.07;;;14.20;99.90;;;;;;4982976;28;20037;-85
2022/03/16 12:22:47;;;;;;;16.88;8.48;;;14.20;99.90;;;;;;5014965;28;20049;-88
2022/03/16 12:25:27;;;;;;;15.88;9.38;;;14.30;99.90;;;;;;5013496;28;20452;-88
2022/03/16 12:31:06;;;;;;;13.32;7.93;;;14.40;99.90;;;;;;5031894;28;20040;-86
2022/03/16 12:33:46;;;;;;;15.88;8.40;;;14.40;99.90;;;;;;5030844;28;20119;-86
2022/03/16 12:36:17;;;;;;;16.58;8.43;;;14.40;99.90;;;;;;5014042;28;20119;-85
2022/03/16 12:39:08;;;;;;;15.82;8.50;;;14.50;99.90;;;;;;5015318;28;20033;-88
2022/03/16 12:44:22;;;;;;;16.30;8.95;;;14.60;99.90;;;;;;5008838;28;20037;-86
2022/03/16 12:47:08;;;;;;;14.05;7.90;;;14.60;99.90;;;;;;4983450;28;20033;-92
2022/03/16 12:49:43;;;;;;;15.95;8.63;;;14.60;99.90;;;;;;5045341;28;20033;-88
2022/03/16 12:52:10;;;;;;;15.48;8.32;;;14.70;99.90;;;;;;4995568;28;20479;-88
2022/03/16 12:54:37;;;;;;;17.40;9.68;;;14.70;99.90;;;;;;5015464;28;20073;-88
2022/03/16 12:57:10;;;;;;;17.25;8.52;;;14.70;99.90;;;;;;5030330;28;20041;-87
2022/03/16 12:59:45;;;;;;;15.43;8.63;;;14.70;99.90;;;;;;5024463;28;20494;-86
2022/03/16 13:02:11;;;;;;;16.23;8.93;;;14.60;99.90;;;;;;5030209;28;20073;-85
2022/03/16 13:04:37;;;;;;;16.50;8.90;;;14.60;99.90;;;;;;4998566;28;20079;-85
2022/03/16 13:07:05;;;;;;;16.08;9.05;;;14.60;99.90;;;;;;5029252;28;20049;-86
2022/03/16 13:09:32;;;;;;;16.17;8.30;;;14.70;99.90;;;;;;4978578;28;20045;-86